Saint Petersburg, Florida
Current Conditions -  °F | °C
As of 3:53 PM on Saturday 20 Dec 2014 (Local Time) from KSPG Reporting Station
Broken Clouds Broken Clouds  
Wind Chill: 74°   Ceiling: 9000
Heat Index: 74°   Visibility: 10mi
Dew Point: 59°   Wind: 9mph
Humidity: 59%   Direction: 240°WSW
Pressure: 30.02"   Gusts: NA
Location:  27.77°N, 82.63°W
Report Text: KSPG 202053Z 24008KT 10SM BKN090 23/15 A3002 RMK AO2 SLP166 T02330150 56010
Loading
Personal Weather Stations






























Interactive Weather Map New forecast layout! Learn more

10-Day Weather Forecast

Advertisements
Track Severe Weather on mobile